Morehead City, NC

2:48 PM EST on December 03, 2016 (GMT -0500)
North shore 1 | | Change Station

Elev 3 ft 34.71 °N, 76.74 °W | Updated 12 minutes ago

Clear
Clear
51.9 °F
Feels Like 51.9 °F
N
2.0
Wind Variable Wind from North
Gusts 15.0 mph

Today
High -- | Low -- °F
--% Chance of Precip.
Yesterday
High -- | Low -- °F
Precip. -- in
Pressure 30.20 in
Visibility 10.0 miles
Clouds Clear
Dew Point 36 °F
Humidity 55%
Rainfall 0.00 in
Snow Depth Not available.
6:58 AM 4:55 PM
Waxing Crescent, 16% visible
METAR KMRH 031858Z AUTO 32008KT 10SM CLR 12/00 A3020 RMK AO2 SLP226 T01220000 TSNO $
Pressure 30.20 in
Visibility 10.0 miles
Clouds Clear
Dew Point 36 °F
Humidity 55%
Rainfall 0.00 in
Snow Depth Not available.
6:58 AM 4:55 PM
Waxing Crescent, 16% visible
METAR KMRH 031858Z AUTO 32008KT 10SM CLR 12/00 A3020 RMK AO2 SLP226 T01220000 TSNO $

10-Day Weather Forecast

Almanac

Astronomy

Dec. 03, 2016 Rise Set
Actual Time
Civil Twilight
Nautical Twilight
Astronomical Twilight
Moon
Length of Visible Light
Length of Day
Tomorrow will be .
, % of the Moon is Illuminated

Today's Extremes

State Highs State Lows

Community

WunderPhotos

Upload Photos

1,955,481 photos uploaded!

WunderBlog® & News

Nearby

Air Quality

  Air Quality AQ Index Pollutant
Not available.

Snow Depth

Station Depth Elevation

Earthquake Activity

City Distance Mag. Time & Date
Minimum magnitude displayed is 2.5.

Coastal Water Temperatures

Place Temperature

Stations

Nearby Weather Stations

Station Location Temp. Windchill Dew Point Humidity Wind Precip. Elev Updated Type
                   

Watches & Warnings

There are currently no watches in effect.